MAPA DE AEROPUERTO

INFORMACIÓN METAR y TAF

METAR FOR EDDF
ADDS - METARS form results

(1629 UTC 23 October 2021)
Data provider http://aviationweather.gov/metar/data/
 
METAR text: EDDF 231620Z VRB02KT 9999 FEW036 SCT048 10/05 Q1029 NOSIG
Conditions at: EDDF (FRANKFURT MAIN A, DE) observed 1620 UTC 23 October 2021
Temperature: 10.0°C (50°F)
Dewpoint: 5.0°C (41°F) [RH = 71%]
Pressure (altimeter): 30.38 inches Hg (1029.0 mb)
Winds: variable direction winds at 2 MPH (2 knots; 1.0 m/s)
Visibility: 6 or more miles (10+ km)
Ceiling: at least 12,000 feet AGL
Clouds: few clouds at 3600 feet AGL
scattered clouds at 4800 feet AGL
Weather: no significant weather observed at this time

METAR text: EDDF 231550Z VRB02KT 9999 FEW036 SCT046 11/06 Q1029 NOSIG
Conditions at: EDDF (FRANKFURT MAIN A, DE) observed 1550 UTC 23 October 2021
Temperature: 11.0°C (52°F)
Dewpoint: 6.0°C (43°F) [RH = 71%]
Pressure (altimeter): 30.38 inches Hg (1029.0 mb)
Winds: variable direction winds at 2 MPH (2 knots; 1.0 m/s)
Visibility: 6 or more miles (10+ km)
Ceiling: at least 12,000 feet AGL
Clouds: few clouds at 3600 feet AGL
scattered clouds at 4600 feet AGL
Weather: no significant weather observed at this time

Forecast for: EDDF (FRANKFURT MAIN A, DE)
Text: TAF EDDF 231100Z 2312/2418 24005KT 9999 FEW025
Forecast period: 1200 UTC 23 October 2021 to 1800 UTC 24 October 2021
Forecast type: FROM: standard forecast or significant change
Winds: from the WSW (240 degrees) at 6 MPH (5 knots; 2.6 m/s)
Visibility: 6 or more miles (10+ km)
Ceiling: at least 12,000 feet AGL
Clouds: few clouds at 2500 feet AGL
Weather: no significant weather forecast for this period
Text: BECMG 2312/2315 05004KT
Forecast period: 1200 UTC 23 October 2021 to 1000 UTC 24 October 2021
Forecast type: BECOMING: Conditions expected to become as follows by 1500 UTC 23 October 2021
Winds: from the NE (50 degrees) at 5 MPH (4 knots; 2.1 m/s)
Visibility: 6 or more miles (10+ km)
Ceiling: at least 12,000 feet AGL
Clouds: few clouds at 2500 feet AGL
Weather: no significant weather forecast for this period
Text: PROB30
Forecast period: 0500 to 0700 UTC 24 October 2021
Forecast type: TEMPORARY: The following changes expected for less than half the time period
Visibility: 2.80 miles (4.51 km)
Ceiling: unknown
Clouds: missing
Weather: BR  (mist)
Text: TEMPO 2405/2407 4500 BR
Forecast period: 1000 to 1800 UTC 24 October 2021
Forecast type: BECOMING: Conditions expected to become as follows by 1300 UTC 24 October 2021
Winds: from the ESE (110 degrees) at 6 MPH (5 knots; 2.6 m/s)
Visibility: 6 or more miles (10+ km)
Ceiling: at least 12,000 feet AGL
Clouds: few clouds at 2500 feet AGL
Weather: no significant weather forecast for this period